Terminal Aerodrome Forecast
Issued by NWS

Home | Current Version | Previous Version | Text Only | Print | Product List | Glossary On
Versions: 1 2 3 4 5 6 7 8 9 10 11 12
000
FTUS45 KVEF 010527
TAFHND
TAF
KHND 010527Z 0106/0206 18009KT P6SM SCT150 BKN200
     FM012000 19014G22KT P6SM SCT140 BKN200
     FM020400 19012KT P6SM FEW140=

USA.gov is the U.S. government's official web portal to all federal, state and local government web resources and services.